sensor_id;sensor_type;location;lat;lon;timestamp;pressure;altitude;pressure_sealevel;temperature;humidity
11525;BME280;5819;49.648;8.330;2023-01-15T00:00:00;98928.44;;;10.08;100.00
11525;BME280;5819;49.648;8.330;2023-01-15T00:02:32;98927.59;;;10.21;100.00
11525;BME280;5819;49.648;8.330;2023-01-15T00:05:00;98931.78;;;10.10;100.00
11525;BME280;5819;49.648;8.330;2023-01-15T00:07:29;98920.44;;;10.25;100.00
11525;BME280;5819;49.648;8.330;2023-01-15T00:09:57;98915.03;;;10.28;100.00
11525;BME280;5819;49.648;8.330;2023-01-15T00:12:25;98919.00;;;10.33;100.00
11525;BME280;5819;49.648;8.330;2023-01-15T00:14:53;98909.75;;;10.29;100.00
11525;BME280;5819;49.648;8.330;2023-01-15T00:17:23;98906.03;;;10.33;100.00
11525;BME280;5819;49.648;8.330;2023-01-15T00:19:52;98903.00;;;10.13;100.00
11525;BME280;5819;49.648;8.330;2023-01-15T00:22:20;98886.97;;;10.06;100.00
11525;BME280;5819;49.648;8.330;2023-01-15T00:24:48;98883.00;;;10.27;100.00
11525;BME280;5819;49.648;8.330;2023-01-15T00:27:34;98890.44;;;10.33;100.00
11525;BME280;5819;49.648;8.330;2023-01-15T00:30:06;98873.56;;;10.26;100.00
11525;BME280;5819;49.648;8.330;2023-01-15T00:32:37;98879.59;;;10.27;100.00
11525;BME280;5819;49.648;8.330;2023-01-15T00:35:10;98869.22;;;10.27;100.00
11525;BME280;5819;49.648;8.330;2023-01-15T00:37:38;98883.41;;;10.21;100.00
11525;BME280;5819;49.648;8.330;2023-01-15T00:40:07;98878.44;;;10.18;100.00
11525;BME280;5819;49.648;8.330;2023-01-15T00:42:55;98876.06;;;10.28;100.00
11525;BME280;5819;49.648;8.330;2023-01-15T00:45:23;98871.41;;;10.33;100.00
11525;BME280;5819;49.648;8.330;2023-01-15T00:47:51;98873.75;;;10.23;100.00
11525;BME280;5819;49.648;8.330;2023-01-15T00:50:21;98878.47;;;10.44;100.00
11525;BME280;5819;49.648;8.330;2023-01-15T00:52:48;98868.16;;;10.29;100.00
11525;BME280;5819;49.648;8.330;2023-01-15T00:55:16;98860.41;;;10.15;100.00
11525;BME280;5819;49.648;8.330;2023-01-15T00:57:44;98858.06;;;10.25;100.00
11525;BME280;5819;49.648;8.330;2023-01-15T01:00:13;98855.72;;;10.47;100.00
11525;BME280;5819;49.648;8.330;2023-01-15T01:02:41;98857.97;;;10.39;100.00
11525;BME280;5819;49.648;8.330;2023-01-15T01:05:09;98855.72;;;10.35;100.00
11525;BME280;5819;49.648;8.330;2023-01-15T01:07:38;98853.44;;;10.55;100.00
11525;BME280;5819;49.648;8.330;2023-01-15T01:10:06;98866.13;;;10.60;100.00
11525;BME280;5819;49.648;8.330;2023-01-15T01:12:35;98857.69;;;10.44;100.00
11525;BME280;5819;49.648;8.330;2023-01-15T01:15:03;98854.47;;;10.40;100.00
11525;BME280;5819;49.648;8.330;2023-01-15T01:17:32;98856.25;;;10.52;100.00
11525;BME280;5819;49.648;8.330;2023-01-15T01:20:01;98852.69;;;10.41;100.00
11525;BME280;5819;49.648;8.330;2023-01-15T01:22:30;98858.47;;;10.19;100.00
11525;BME280;5819;49.648;8.330;2023-01-15T01:25:01;98864.94;;;10.26;100.00
11525;BME280;5819;49.648;8.330;2023-01-15T01:27:29;98866.28;;;10.31;100.00
11525;BME280;5819;49.648;8.330;2023-01-15T01:29:57;98865.28;;;10.34;100.00
11525;BME280;5819;49.648;8.330;2023-01-15T01:32:25;98878.13;;;10.23;100.00
11525;BME280;5819;49.648;8.330;2023-01-15T01:34:55;98876.25;;;10.25;100.00
11525;BME280;5819;49.648;8.330;2023-01-15T01:37:23;98874.41;;;10.27;100.00
11525;BME280;5819;49.648;8.330;2023-01-15T01:39:50;98881.50;;;10.38;100.00
11525;BME280;5819;49.648;8.330;2023-01-15T01:42:20;98889.34;;;10.23;100.00
11525;BME280;5819;49.648;8.330;2023-01-15T01:45:02;98884.91;;;10.11;100.00
11525;BME280;5819;49.648;8.330;2023-01-15T01:47:31;98894.06;;;9.90;100.00
11525;BME280;5819;49.648;8.330;2023-01-15T01:50:04;98888.69;;;9.79;100.00
11525;BME280;5819;49.648;8.330;2023-01-15T01:52:38;98893.16;;;9.77;100.00
11525;BME280;5819;49.648;8.330;2023-01-15T01:55:09;98899.47;;;9.73;100.00
11525;BME280;5819;49.648;8.330;2023-01-15T01:57:40;98896.31;;;9.68;100.00
11525;BME280;5819;49.648;8.330;2023-01-15T02:00:09;98894.84;;;9.64;100.00
11525;BME280;5819;49.648;8.330;2023-01-15T02:02:39;98889.00;;;9.60;100.00
11525;BME280;5819;49.648;8.330;2023-01-15T02:05:08;98887.81;;;9.66;100.00
11525;BME280;5819;49.648;8.330;2023-01-15T02:07:38;98889.66;;;9.64;100.00
11525;BME280;5819;49.648;8.330;2023-01-15T02:10:11;98899.75;;;9.82;100.00
11525;BME280;5819;49.648;8.330;2023-01-15T02:12:41;98896.69;;;9.76;100.00
11525;BME280;5819;49.648;8.330;2023-01-15T02:15:15;98903.00;;;9.72;100.00
11525;BME280;5819;49.648;8.330;2023-01-15T02:17:48;98906.22;;;9.75;100.00
11525;BME280;5819;49.648;8.330;2023-01-15T02:20:24;98915.69;;;9.76;100.00
11525;BME280;5819;49.648;8.330;2023-01-15T02:23:19;98918.44;;;9.47;100.00
11525;BME280;5819;49.648;8.330;2023-01-15T02:26:25;98927.31;;;9.14;100.00
11525;BME280;5819;49.648;8.330;2023-01-15T02:28:58;98955.06;;;8.98;100.00
11525;BME280;5819;49.648;8.330;2023-01-15T02:31:32;98948.94;;;8.85;100.00
11525;BME280;5819;49.648;8.330;2023-01-15T02:34:05;98957.22;;;8.76;100.00
11525;BME280;5819;49.648;8.330;2023-01-15T02:36:39;98945.09;;;8.76;100.00
11525;BME280;5819;49.648;8.330;2023-01-15T02:39:18;98950.06;;;8.65;100.00
11525;BME280;5819;49.648;8.330;2023-01-15T02:41:50;98953.09;;;8.58;100.00
11525;BME280;5819;49.648;8.330;2023-01-15T02:44:24;98951.44;;;8.57;100.00
11525;BME280;5819;49.648;8.330;2023-01-15T02:46:56;98957.34;;;8.59;100.00
11525;BME280;5819;49.648;8.330;2023-01-15T02:49:27;98962.88;;;8.53;100.00
11525;BME280;5819;49.648;8.330;2023-01-15T02:52:06;98960.22;;;8.54;100.00
11525;BME280;5819;49.648;8.330;2023-01-15T02:54:39;98966.97;;;8.57;100.00
11525;BME280;5819;49.648;8.330;2023-01-15T02:57:09;98967.66;;;8.44;100.00
11525;BME280;5819;49.648;8.330;2023-01-15T02:59:42;98968.31;;;8.48;100.00
11525;BME280;5819;49.648;8.330;2023-01-15T03:02:15;98975.41;;;8.60;100.00
11525;BME280;5819;49.648;8.330;2023-01-15T03:04:48;98979.53;;;8.49;100.00
11525;BME280;5819;49.648;8.330;2023-01-15T03:07:21;98979.19;;;8.39;100.00
11525;BME280;5819;49.648;8.330;2023-01-15T03:09:53;98975.75;;;8.54;100.00
11525;BME280;5819;49.648;8.330;2023-01-15T03:12:25;98988.81;;;8.53;100.00
11525;BME280;5819;49.648;8.330;2023-01-15T03:15:03;98990.63;;;8.51;100.00
11525;BME280;5819;49.648;8.330;2023-01-15T03:17:42;98998.00;;;8.42;100.00
11525;BME280;5819;49.648;8.330;2023-01-15T03:20:16;99000.56;;;8.42;100.00
11525;BME280;5819;49.648;8.330;2023-01-15T03:22:52;98991.97;;;8.26;100.00
11525;BME280;5819;49.648;8.330;2023-01-15T03:25:23;98991.56;;;8.18;100.00
11525;BME280;5819;49.648;8.330;2023-01-15T03:27:57;98992.06;;;8.09;100.00
11525;BME280;5819;49.648;8.330;2023-01-15T03:30:28;98993.13;;;8.05;100.00
11525;BME280;5819;49.648;8.330;2023-01-15T03:32:57;99001.06;;;8.02;100.00
11525;BME280;5819;49.648;8.330;2023-01-15T03:35:45;99004.47;;;7.87;100.00
11525;BME280;5819;49.648;8.330;2023-01-15T03:38:26;99009.63;;;7.87;100.00
11525;BME280;5819;49.648;8.330;2023-01-15T03:41:03;99015.88;;;7.83;100.00
11525;BME280;5819;49.648;8.330;2023-01-15T03:43:40;99027.19;;;7.82;100.00
11525;BME280;5819;49.648;8.330;2023-01-15T03:46:28;99021.91;;;7.83;100.00
11525;BME280;5819;49.648;8.330;2023-01-15T03:49:03;99020.41;;;7.79;100.00
11525;BME280;5819;49.648;8.330;2023-01-15T03:51:42;99031.59;;;7.80;100.00
11525;BME280;5819;49.648;8.330;2023-01-15T03:54:16;99037.84;;;7.76;100.00
11525;BME280;5819;49.648;8.330;2023-01-15T03:56:51;99028.56;;;7.72;100.00
11525;BME280;5819;49.648;8.330;2023-01-15T03:59:27;99041.00;;;7.65;100.00
11525;BME280;5819;49.648;8.330;2023-01-15T04:02:04;99050.75;;;7.60;100.00
11525;BME280;5819;49.648;8.330;2023-01-15T04:04:34;99046.63;;;7.56;100.00
11525;BME280;5819;49.648;8.330;2023-01-15T04:07:04;99057.16;;;7.53;100.00
11525;BME280;5819;49.648;8.330;2023-01-15T04:09:36;99055.69;;;7.47;100.00
11525;BME280;5819;49.648;8.330;2023-01-15T04:12:09;99057.59;;;7.44;100.00
11525;BME280;5819;49.648;8.330;2023-01-15T04:14:41;99060.41;;;7.39;100.00
11525;BME280;5819;49.648;8.330;2023-01-15T04:17:16;99062.31;;;7.36;100.00
11525;BME280;5819;49.648;8.330;2023-01-15T04:19:43;99071.84;;;7.35;100.00
11525;BME280;5819;49.648;8.330;2023-01-15T04:22:12;99072.00;;;7.32;100.00
11525;BME280;5819;49.648;8.330;2023-01-15T04:24:40;99066.66;;;7.35;100.00
11525;BME280;5819;49.648;8.330;2023-01-15T04:27:07;99071.16;;;7.32;100.00
11525;BME280;5819;49.648;8.330;2023-01-15T04:29:35;99072.28;;;7.26;100.00
11525;BME280;5819;49.648;8.330;2023-01-15T04:32:03;99070.41;;;7.30;100.00
11525;BME280;5819;49.648;8.330;2023-01-15T04:34:32;99080.81;;;7.28;100.00
11525;BME280;5819;49.648;8.330;2023-01-15T04:37:01;99080.97;;;7.25;100.00
11525;BME280;5819;49.648;8.330;2023-01-15T04:39:29;99071.53;;;7.24;100.00
11525;BME280;5819;49.648;8.330;2023-01-15T04:41:57;99081.72;;;7.27;100.00
11525;BME280;5819;49.648;8.330;2023-01-15T04:44:42;99071.38;;;7.27;100.00
11525;BME280;5819;49.648;8.330;2023-01-15T04:47:10;99078.38;;;7.25;100.00
11525;BME280;5819;49.648;8.330;2023-01-15T04:49:39;99080.81;;;7.28;100.00
11525;BME280;5819;49.648;8.330;2023-01-15T04:52:07;99089.69;;;7.23;100.00
11525;BME280;5819;49.648;8.330;2023-01-15T04:54:35;99099.81;;;7.27;100.00
11525;BME280;5819;49.648;8.330;2023-01-15T04:57:04;99110.38;;;7.23;100.00
11525;BME280;5819;49.648;8.330;2023-01-15T04:59:32;99096.63;;;7.22;100.00
11525;BME280;5819;49.648;8.330;2023-01-15T05:02:00;99094.81;;;7.24;100.00
11525;BME280;5819;49.648;8.330;2023-01-15T05:04:32;99105.31;;;7.21;100.00
11525;BME280;5819;49.648;8.330;2023-01-15T05:07:02;99107.06;;;7.21;100.00
11525;BME280;5819;49.648;8.330;2023-01-15T05:09:30;99110.59;;;7.18;100.00
11525;BME280;5819;49.648;8.330;2023-01-15T05:11:58;99111.59;;;7.16;100.00
11525;BME280;5819;49.648;8.330;2023-01-15T05:14:26;99111.38;;;7.20;100.00
11525;BME280;5819;49.648;8.330;2023-01-15T05:16:54;99111.38;;;7.20;100.00
11525;BME280;5819;49.648;8.330;2023-01-15T05:19:22;99109.09;;;7.14;100.00
11525;BME280;5819;49.648;8.330;2023-01-15T05:21:51;99120.34;;;7.13;100.00
11525;BME280;5819;49.648;8.330;2023-01-15T05:24:20;99120.50;;;7.10;100.00
11525;BME280;5819;49.648;8.330;2023-01-15T05:26:48;99128.13;;;7.13;100.00
11525;BME280;5819;49.648;8.330;2023-01-15T05:29:16;99130.97;;;7.07;100.00
11525;BME280;5819;49.648;8.330;2023-01-15T05:31:44;99131.97;;;7.04;100.00
11525;BME280;5819;49.648;8.330;2023-01-15T05:34:12;99131.28;;;7.01;100.00
11525;BME280;5819;49.648;8.330;2023-01-15T05:36:40;99138.34;;;6.97;100.00
11525;BME280;5819;49.648;8.330;2023-01-15T05:39:08;99146.31;;;6.93;100.00
11525;BME280;5819;49.648;8.330;2023-01-15T05:41:37;99141.16;;;6.93;100.00
11525;BME280;5819;49.648;8.330;2023-01-15T05:44:20;99129.97;;;6.92;100.00
11525;BME280;5819;49.648;8.330;2023-01-15T05:46:49;99143.03;;;6.89;100.00
11525;BME280;5819;49.648;8.330;2023-01-15T05:49:19;99140.88;;;6.80;100.00
11525;BME280;5819;49.648;8.330;2023-01-15T05:51:47;99157.91;;;6.84;100.00
11525;BME280;5819;49.648;8.330;2023-01-15T05:54:17;99164.91;;;6.82;100.00
11525;BME280;5819;49.648;8.330;2023-01-15T05:56:46;99149.38;;;6.82;100.00
11525;BME280;5819;49.648;8.330;2023-01-15T05:59:16;99143.53;;;6.79;100.00
11525;BME280;5819;49.648;8.330;2023-01-15T06:01:45;99151.72;;;6.70;100.00
11525;BME280;5819;49.648;8.330;2023-01-15T06:04:13;99154.16;;;6.73;100.00
11525;BME280;5819;49.648;8.330;2023-01-15T06:06:42;99161.06;;;6.72;100.00
11525;BME280;5819;49.648;8.330;2023-01-15T06:09:10;99159.69;;;6.65;100.00
11525;BME280;5819;49.648;8.330;2023-01-15T06:11:38;99163.81;;;6.69;100.00
11525;BME280;5819;49.648;8.330;2023-01-15T06:14:09;99177.34;;;6.55;100.00
11525;BME280;5819;49.648;8.330;2023-01-15T06:16:38;99168.47;;;6.61;100.00
11525;BME280;5819;49.648;8.330;2023-01-15T06:19:08;99177.81;;;6.64;100.00
11525;BME280;5819;49.648;8.330;2023-01-15T06:21:36;99191.94;;;6.56;100.00
11525;BME280;5819;49.648;8.330;2023-01-15T06:24:05;99194.53;;;6.56;100.00
11525;BME280;5819;49.648;8.330;2023-01-15T06:26:33;99200.88;;;6.49;100.00
11525;BME280;5819;49.648;8.330;2023-01-15T06:29:01;99202.75;;;6.46;100.00
11525;BME280;5819;49.648;8.330;2023-01-15T06:31:30;99200.09;;;6.47;100.00
11525;BME280;5819;49.648;8.330;2023-01-15T06:33:58;99203.56;;;6.46;100.00
11525;BME280;5819;49.648;8.330;2023-01-15T06:36:26;99216.47;;;6.46;100.00
11525;BME280;5819;49.648;8.330;2023-01-15T06:38:54;99212.25;;;6.45;100.00
11525;BME280;5819;49.648;8.330;2023-01-15T06:41:24;99192.84;;;6.55;100.00
11525;BME280;5819;49.648;8.330;2023-01-15T06:44:11;99184.59;;;6.47;100.00
11525;BME280;5819;49.648;8.330;2023-01-15T06:47:00;99187.25;;;6.46;100.00
11525;BME280;5819;49.648;8.330;2023-01-15T06:49:49;99200.38;;;6.41;100.00
11525;BME280;5819;49.648;8.330;2023-01-15T06:52:17;99196.09;;;6.40;100.00
11525;BME280;5819;49.648;8.330;2023-01-15T06:54:45;99193.38;;;6.43;100.00
11525;BME280;5819;49.648;8.330;2023-01-15T06:57:13;99190.28;;;6.35;100.00
11525;BME280;5819;49.648;8.330;2023-01-15T06:59:41;99202.44;;;6.33;100.00
11525;BME280;5819;49.648;8.330;2023-01-15T07:02:10;99204.00;;;6.37;100.00
11525;BME280;5819;49.648;8.330;2023-01-15T07:04:38;99205.72;;;6.37;100.00
11525;BME280;5819;49.648;8.330;2023-01-15T07:07:06;99217.75;;;6.38;100.00
11525;BME280;5819;49.648;8.330;2023-01-15T07:09:33;99226.19;;;6.41;100.00
11525;BME280;5819;49.648;8.330;2023-01-15T07:12:01;99229.69;;;6.40;100.00
11525;BME280;5819;49.648;8.330;2023-01-15T07:14:29;99251.56;;;6.32;100.00
11525;BME280;5819;49.648;8.330;2023-01-15T07:16:58;99248.66;;;6.39;100.00
11525;BME280;5819;49.648;8.330;2023-01-15T07:19:27;99257.44;;;6.35;100.00
11525;BME280;5819;49.648;8.330;2023-01-15T07:21:55;99268.66;;;6.34;100.00
11525;BME280;5819;49.648;8.330;2023-01-15T07:24:23;99273.06;;;6.32;100.00
11525;BME280;5819;49.648;8.330;2023-01-15T07:26:51;99284.56;;;6.25;100.00
11525;BME280;5819;49.648;8.330;2023-01-15T07:29:19;99287.91;;;6.27;100.00
11525;BME280;5819;49.648;8.330;2023-01-15T07:31:46;99288.81;;;6.26;100.00
11525;BME280;5819;49.648;8.330;2023-01-15T07:34:14;99291.09;;;6.14;100.00
11525;BME280;5819;49.648;8.330;2023-01-15T07:36:43;99289.31;;;6.14;100.00
11525;BME280;5819;49.648;8.330;2023-01-15T07:39:12;99291.19;;;6.10;100.00
11525;BME280;5819;49.648;8.330;2023-01-15T07:41:40;99277.53;;;6.08;100.00
11525;BME280;5819;49.648;8.330;2023-01-15T07:44:25;99292.22;;;6.06;100.00
11525;BME280;5819;49.648;8.330;2023-01-15T07:47:16;99296.78;;;6.22;100.00
11525;BME280;5819;49.648;8.330;2023-01-15T07:50:05;99293.03;;;6.29;100.00
11525;BME280;5819;49.648;8.330;2023-01-15T07:52:34;99297.03;;;6.36;100.00
11525;BME280;5819;49.648;8.330;2023-01-15T07:55:02;99307.81;;;6.25;100.00
11525;BME280;5819;49.648;8.330;2023-01-15T07:57:30;99313.88;;;6.24;100.00
11525;BME280;5819;49.648;8.330;2023-01-15T07:59:58;99315.66;;;6.22;100.00
11525;BME280;5819;49.648;8.330;2023-01-15T08:02:26;99313.91;;;6.23;100.00
11525;BME280;5819;49.648;8.330;2023-01-15T08:04:54;99308.13;;;6.18;100.00
11525;BME280;5819;49.648;8.330;2023-01-15T08:07:22;99317.66;;;6.16;100.00
11525;BME280;5819;49.648;8.330;2023-01-15T08:09:51;99332.75;;;6.04;100.00
11525;BME280;5819;49.648;8.330;2023-01-15T08:12:19;99333.00;;;5.98;100.00
11525;BME280;5819;49.648;8.330;2023-01-15T08:15:05;99329.28;;;6.05;100.00
11525;BME280;5819;49.648;8.330;2023-01-15T08:17:40;99337.25;;;5.99;100.00
11525;BME280;5819;49.648;8.330;2023-01-15T08:20:10;99339.72;;;6.02;100.00
11525;BME280;5819;49.648;8.330;2023-01-15T08:22:39;99334.72;;;5.98;100.00
11525;BME280;5819;49.648;8.330;2023-01-15T08:25:10;99339.25;;;5.93;100.00
11525;BME280;5819;49.648;8.330;2023-01-15T08:27:38;99335.75;;;5.94;100.00
11525;BME280;5819;49.648;8.330;2023-01-15T08:30:11;99340.72;;;5.98;100.00
11525;BME280;5819;49.648;8.330;2023-01-15T08:32:39;99346.81;;;5.97;100.00
11525;BME280;5819;49.648;8.330;2023-01-15T08:35:07;99342.78;;;5.90;100.00
11525;BME280;5819;49.648;8.330;2023-01-15T08:37:35;99353.94;;;5.91;100.00
11525;BME280;5819;49.648;8.330;2023-01-15T08:40:04;99357.00;;;6.00;100.00
11525;BME280;5819;49.648;8.330;2023-01-15T08:42:34;99351.91;;;5.99;100.00
11525;BME280;5819;49.648;8.330;2023-01-15T08:45:02;99368.41;;;5.95;100.00
11525;BME280;5819;49.648;8.330;2023-01-15T08:47:30;99377.16;;;5.91;100.00
11525;BME280;5819;49.648;8.330;2023-01-15T08:49:58;99379.84;;;5.89;100.00
11525;BME280;5819;49.648;8.330;2023-01-15T08:52:26;99379.06;;;5.86;100.00
11525;BME280;5819;49.648;8.330;2023-01-15T08:54:54;99373.53;;;5.96;100.00
11525;BME280;5819;49.648;8.330;2023-01-15T08:57:22;99388.22;;;5.94;100.00
11525;BME280;5819;49.648;8.330;2023-01-15T08:59:51;99394.03;;;5.99;100.00
11525;BME280;5819;49.648;8.330;2023-01-15T09:02:19;99395.78;;;5.99;100.00
11525;BME280;5819;49.648;8.330;2023-01-15T09:04:47;99413.00;;;5.98;100.00
11525;BME280;5819;49.648;8.330;2023-01-15T09:07:14;99393.19;;;5.99;100.00
11525;BME280;5819;49.648;8.330;2023-01-15T09:09:42;99403.41;;;6.02;100.00
11525;BME280;5819;49.648;8.330;2023-01-15T09:12:10;99401.56;;;6.05;100.00
11525;BME280;5819;49.648;8.330;2023-01-15T09:14:39;99396.19;;;6.10;100.00
11525;BME280;5819;49.648;8.330;2023-01-15T09:17:29;99409.72;;;6.17;100.00
11525;BME280;5819;49.648;8.330;2023-01-15T09:19:58;99391.38;;;6.23;100.00
11525;BME280;5819;49.648;8.330;2023-01-15T09:22:26;99388.22;;;6.38;100.00
11525;BME280;5819;49.648;8.330;2023-01-15T09:24:56;99389.44;;;6.49;100.00
11525;BME280;5819;49.648;8.330;2023-01-15T09:27:24;99387.88;;;6.45;100.00
11525;BME280;5819;49.648;8.330;2023-01-15T09:29:52;99405.75;;;6.50;100.00
11525;BME280;5819;49.648;8.330;2023-01-15T09:32:20;99415.81;;;6.57;100.00
11525;BME280;5819;49.648;8.330;2023-01-15T09:34:49;99419.50;;;6.50;100.00
11525;BME280;5819;49.648;8.330;2023-01-15T09:37:17;99424.06;;;6.45;100.00
11525;BME280;5819;49.648;8.330;2023-01-15T09:39:45;99427.25;;;6.50;100.00
11525;BME280;5819;49.648;8.330;2023-01-15T09:42:27;99437.38;;;6.35;100.00
11525;BME280;5819;49.648;8.330;2023-01-15T09:45:09;99457.84;;;6.39;100.00
11525;BME280;5819;49.648;8.330;2023-01-15T09:47:49;99479.13;;;6.24;100.00
11525;BME280;5819;49.648;8.330;2023-01-15T09:50:29;99495.75;;;6.17;100.00
11525;BME280;5819;49.648;8.330;2023-01-15T09:53:21;99496.66;;;6.16;100.00
11525;BME280;5819;49.648;8.330;2023-01-15T09:55:53;99498.69;;;5.85;100.00
11525;BME280;5819;49.648;8.330;2023-01-15T09:58:26;99507.22;;;5.87;100.00
11525;BME280;5819;49.648;8.330;2023-01-15T10:00:58;99506.28;;;5.89;100.00
11525;BME280;5819;49.648;8.330;2023-01-15T10:03:31;99504.63;;;5.87;100.00
11525;BME280;5819;49.648;8.330;2023-01-15T10:06:07;99503.75;;;5.88;100.00
11525;BME280;5819;49.648;8.330;2023-01-15T10:08:39;99509.84;;;5.85;100.00
11525;BME280;5819;49.648;8.330;2023-01-15T10:11:27;99528.72;;;5.86;100.00
11525;BME280;5819;49.648;8.330;2023-01-15T10:14:14;99531.41;;;5.83;100.00
11525;BME280;5819;49.648;8.330;2023-01-15T10:16:48;99535.00;;;5.79;100.00
11525;BME280;5819;49.648;8.330;2023-01-15T10:19:16;99534.09;;;5.81;100.00
11525;BME280;5819;49.648;8.330;2023-01-15T10:21:52;99536.19;;;5.70;100.00
11525;BME280;5819;49.648;8.330;2023-01-15T10:24:26;99542.50;;;5.86;100.00
11525;BME280;5819;49.648;8.330;2023-01-15T10:27:05;99549.28;;;5.65;100.00
11525;BME280;5819;49.648;8.330;2023-01-15T10:29:43;99554.91;;;5.52;100.00
11525;BME280;5819;49.648;8.330;2023-01-15T10:32:21;99548.78;;;5.54;100.00
11525;BME280;5819;49.648;8.330;2023-01-15T10:35:08;99551.63;;;5.47;100.00
11525;BME280;5819;49.648;8.330;2023-01-15T10:37:42;99551.28;;;5.57;100.00
11525;BME280;5819;49.648;8.330;2023-01-15T10:40:30;99561.09;;;5.46;100.00
11525;BME280;5819;49.648;8.330;2023-01-15T10:43:05;99562.22;;;5.39;100.00
11525;BME280;5819;49.648;8.330;2023-01-15T10:45:40;99563.63;;;5.48;100.00
11525;BME280;5819;49.648;8.330;2023-01-15T10:48:17;99567.75;;;5.53;100.00
11525;BME280;5819;49.648;8.330;2023-01-15T10:50:47;99562.59;;;5.53;100.00
11525;BME280;5819;49.648;8.330;2023-01-15T10:53:23;99564.59;;;5.45;100.00
11525;BME280;5819;49.648;8.330;2023-01-15T10:55:57;99561.91;;;5.48;100.00
11525;BME280;5819;49.648;8.330;2023-01-15T10:58:33;99568.75;;;5.49;100.00
11525;BME280;5819;49.648;8.330;2023-01-15T11:01:04;99565.78;;;5.35;100.00
11525;BME280;5819;49.648;8.330;2023-01-15T11:03:35;99556.28;;;5.37;100.00
11525;BME280;5819;49.648;8.330;2023-01-15T11:06:06;99567.63;;;5.32;100.00
11525;BME280;5819;49.648;8.330;2023-01-15T11:08:36;99566.81;;;5.30;100.00
11525;BME280;5819;49.648;8.330;2023-01-15T11:11:29;99584.28;;;5.22;100.00
11525;BME280;5819;49.648;8.330;2023-01-15T11:14:32;99579.97;;;5.22;100.00
11525;BME280;5819;49.648;8.330;2023-01-15T11:17:17;99575.72;;;5.21;100.00
11525;BME280;5819;49.648;8.330;2023-01-15T11:20:25;99591.78;;;5.03;100.00
11525;BME280;5819;49.648;8.330;2023-01-15T11:22:55;99592.97;;;4.93;100.00
11525;BME280;5819;49.648;8.330;2023-01-15T11:25:29;99593.06;;;4.90;100.00
11525;BME280;5819;49.648;8.330;2023-01-15T11:27:59;99599.44;;;4.78;100.00
11525;BME280;5819;49.648;8.330;2023-01-15T11:30:30;99574.41;;;4.82;100.00
11525;BME280;5819;49.648;8.330;2023-01-15T11:33:00;99563.94;;;4.88;100.00
11525;BME280;5819;49.648;8.330;2023-01-15T11:35:30;99561.50;;;4.83;100.00
11525;BME280;5819;49.648;8.330;2023-01-15T11:38:03;99549.19;;;4.93;100.00
11525;BME280;5819;49.648;8.330;2023-01-15T11:40:33;99547.38;;;5.21;100.00
11525;BME280;5819;49.648;8.330;2023-01-15T11:43:00;99553.31;;;5.23;100.00
11525;BME280;5819;49.648;8.330;2023-01-15T11:45:47;99562.00;;;5.21;100.00
11525;BME280;5819;49.648;8.330;2023-01-15T11:48:41;99571.31;;;4.98;100.00
11525;BME280;5819;49.648;8.330;2023-01-15T11:51:28;99556.38;;;4.82;100.00
11525;BME280;5819;49.648;8.330;2023-01-15T11:54:01;99549.97;;;4.68;100.00
11525;BME280;5819;49.648;8.330;2023-01-15T11:56:32;99541.69;;;4.85;100.00
11525;BME280;5819;49.648;8.330;2023-01-15T11:59:03;99528.25;;;5.02;100.00
11525;BME280;5819;49.648;8.330;2023-01-15T12:01:37;99515.63;;;5.19;100.00
11525;BME280;5819;49.648;8.330;2023-01-15T12:04:23;99505.72;;;5.33;100.00
11525;BME280;5819;49.648;8.330;2023-01-15T12:06:53;99512.88;;;5.25;100.00
11525;BME280;5819;49.648;8.330;2023-01-15T12:09:29;99510.09;;;5.54;100.00
11525;BME280;5819;49.648;8.330;2023-01-15T12:12:10;99500.41;;;5.61;100.00
11525;BME280;5819;49.648;8.330;2023-01-15T12:14:57;99491.31;;;5.74;100.00
11525;BME280;5819;49.648;8.330;2023-01-15T12:17:49;99496.66;;;5.70;100.00
11525;BME280;5819;49.648;8.330;2023-01-15T12:20:23;99494.25;;;5.65;100.00
11525;BME280;5819;49.648;8.330;2023-01-15T12:23:00;99498.31;;;5.71;100.00
11525;BME280;5819;49.648;8.330;2023-01-15T12:25:43;99484.25;;;5.79;100.00
11525;BME280;5819;49.648;8.330;2023-01-15T12:28:20;99494.88;;;5.95;100.00
11525;BME280;5819;49.648;8.330;2023-01-15T12:30:57;99485.09;;;6.03;100.00
11525;BME280;5819;49.648;8.330;2023-01-15T12:33:36;99494.50;;;6.05;100.00
11525;BME280;5819;49.648;8.330;2023-01-15T12:36:11;99493.91;;;6.21;100.00
11525;BME280;5819;49.648;8.330;2023-01-15T12:38:46;99485.81;;;6.30;100.00
11525;BME280;5819;49.648;8.330;2023-01-15T12:41:21;99480.50;;;6.33;100.00
11525;BME280;5819;49.648;8.330;2023-01-15T12:43:55;99469.75;;;6.43;100.00
11525;BME280;5819;49.648;8.330;2023-01-15T12:46:44;99460.34;;;6.63;100.00
11525;BME280;5819;49.648;8.330;2023-01-15T12:49:22;99449.97;;;6.64;100.00
11525;BME280;5819;49.648;8.330;2023-01-15T12:52:00;99439.97;;;6.77;100.00
11525;BME280;5819;49.648;8.330;2023-01-15T12:54:34;99450.03;;;6.83;100.00
11525;BME280;5819;49.648;8.330;2023-01-15T12:57:10;99450.13;;;7.01;100.00
11525;BME280;5819;49.648;8.330;2023-01-15T12:59:46;99438.59;;;7.29;100.00
11525;BME280;5819;49.648;8.330;2023-01-15T13:02:19;99446.19;;;7.13;100.00
11525;BME280;5819;49.648;8.330;2023-01-15T13:04:51;99451.59;;;7.07;100.00
11525;BME280;5819;49.648;8.330;2023-01-15T13:07:24;99457.75;;;7.04;100.00
11525;BME280;5819;49.648;8.330;2023-01-15T13:09:59;99458.50;;;7.06;100.00
11525;BME280;5819;49.648;8.330;2023-01-15T13:12:32;99457.38;;;7.14;100.00
11525;BME280;5819;49.648;8.330;2023-01-15T13:15:03;99454.97;;;6.89;100.00
11525;BME280;5819;49.648;8.330;2023-01-15T13:17:38;99466.72;;;6.96;100.00
11525;BME280;5819;49.648;8.330;2023-01-15T13:20:32;99467.38;;;7.01;100.00
11525;BME280;5819;49.648;8.330;2023-01-15T13:23:08;99469.63;;;7.09;100.00
11525;BME280;5819;49.648;8.330;2023-01-15T13:25:55;99471.19;;;7.33;100.00
11525;BME280;5819;49.648;8.330;2023-01-15T13:28:38;99480.44;;;6.98;100.00
11525;BME280;5819;49.648;8.330;2023-01-15T13:31:29;99483.78;;;7.00;100.00
11525;BME280;5819;49.648;8.330;2023-01-15T13:34:01;99477.97;;;6.95;100.00
11525;BME280;5819;49.648;8.330;2023-01-15T13:36:32;99484.06;;;6.94;100.00
11525;BME280;5819;49.648;8.330;2023-01-15T13:39:02;99484.44;;;7.05;100.00